Latest Coastal Weather Observations for Charles Point

IDD60701

Issued at 2:55 am CST Sunday 26 October 2014 (issued every 10 minutes, with the page automatically refreshed every 10 minutes)

About coastal observations | Map of coastal stations | Coastal observations for NT | Marine services | Other Formats
Station Details ID: 014031 Name: CHARLES POINT Lat: -12.39 Lon: 130.63 Height: 14.0 m
Data from the previous 72 hours. | See also: Recent months for locations in Northern Territory
Date/Time
CST
Temp

°C
Wind Pressure Rain
since 9am
mm
Weather Cloud Vis
km
Sea
Height
m
Swell
Dir
 
Speed
knots
Gust
knots
hPa Trend Height
m
Period
s
Dir
26/02:30am 27.4 N 8 11 1013.3 - 0.0 - - - - - - -
26/02:00am 27.4 N 10 12 1013.4 - 0.0 - - - - - - -
26/01:30am 27.4 N 9 13 1013.5 - 0.0 - - - - - - -
26/01:00am 27.5 N 9 13 1013.6 - 0.0 - - - - - - -
26/12:30am 27.7 N 12 15 1013.7 - 0.0 - - - - - - -
26/12:00am 27.9 N 12 14 1013.9 - 0.0 - - - - - - -
 
Date/Time
CST
Temp

°C
Wind Pressure Rain
since 9am
mm
Weather Cloud Vis
km
Sea
Height
m
Swell
Dir
 
Speed
knots
Gust
knots
hPa Trend Height
m
Period
s
Dir
25/11:30pm 28.1 NW 8 12 1014.3 - 0.0 - - - - - - -
25/11:00pm 28.2 NW 8 12 1014.2 - 0.0 - - - - - - -
25/10:30pm 28.3 NW 9 12 1014.0 - 0.0 - - - - - - -
25/10:00pm 28.3 NW 10 13 1014.1 - 0.0 - - - - - - -
25/09:30pm 28.3 WNW 10 14 1013.7 - 0.0 - - - - - - -
25/09:00pm 27.4 W 3 13 1013.6 - 0.0 - - - - - - -
25/08:30pm 27.1 W 2 4 1013.0 - 0.0 - - - - - - -
25/08:00pm 27.6 WSW 3 4 1012.6 - 0.0 - - - - - - -
25/07:30pm 27.6 S 2 2 1012.1 - 0.0 - - - - - - -
25/07:00pm 28.5 SSW 3 4 1011.8 - 0.0 - - - - - - -
25/06:30pm 29.7 W 1 2 1011.6 - 0.0 - - - - - - -
25/06:00pm 30.8 NNW 3 5 1011.3 - 0.0 - - - - - - -
25/05:30pm 30.6 N 5 7 1011.1 - 0.0 - - - - - - -
25/05:00pm 31.1 NNE 5 7 1010.9 - 0.0 - - - - - - -
25/04:30pm 31.2 NNE 6 9 1011.0 - 0.0 - - - - - - -
25/04:00pm 30.7 NNE 9 13 1011.2 - 0.0 - - - - - - -
25/03:30pm 30.3 N 10 13 1011.5 - 0.0 - - - - - - -
25/03:00pm 30.0 N 12 14 1011.7 - 0.0 - - - - - - -
25/02:30pm 29.6 N 11 14 1011.9 - 0.0 - - - - - - -
25/02:00pm 29.5 N 13 17 1012.0 - 0.0 - - - - - - -
25/01:30pm 29.9 NNE 10 15 1012.5 - 0.0 - - - - - - -
25/01:00pm 29.9 N 11 13 1013.0 - 0.0 - - - - - - -
25/12:30pm 30.2 N 9 11 1013.5 - 0.0 - - - - - - -
25/12:00pm 30.4 NNE 6 8 1014.1 - 0.0 - - - - - - -
25/11:30am 29.8 NNE 6 8 1014.6 - 0.0 - - - - - - -
25/11:00am 29.6 NNE 5 8 1014.9 - 0.0 - - - - - - -
25/10:30am 29.3 NE 4 7 1015.3 - 0.0 - - - - - - -
25/10:00am 29.2 ENE 5 9 1015.6 - 0.0 - - - - - - -
25/09:30am 29.6 E 4 7 1015.8 - 0.0 - - - - - - -
25/09:00am 29.1 E 5 9 1016.0 - 0.0 - - - - - - -
25/08:30am 28.9 E 5 7 1015.9 - 0.0 - - - - - - -
25/08:00am 28.6 E 4 7 1015.6 - 0.0 - - - - - - -
25/07:30am 28.3 E 4 7 1015.4 - 0.0 - - - - - - -
25/07:00am 27.8 ENE 4 7 1015.0 - 0.0 - - - - - - -
25/06:30am 27.5 E 4 8 1014.5 - 0.0 - - - - - - -
25/06:00am 27.6 ENE 5 8 1014.3 - 0.0 - - - - - - -
25/05:30am 27.8 ENE 6 10 1013.8 - 0.0 - - - - - - -
25/05:00am 27.7 ENE 7 11 1013.4 - 0.0 - - - - - - -
25/04:30am 27.8 NE 8 11 1013.2 - 0.0 - - - - - - -
25/04:00am 27.4 NE 8 11 1012.9 - 0.0 - - - - - - -
25/03:30am 27.4 NE 7 12 1012.9 - 0.0 - - - - - - -
25/03:00am 27.5 NNE 8 10 1013.0 - 0.0 - - - - - - -
25/02:30am 27.6 NNE 7 9 1013.0 - 0.0 - - - - - - -
25/02:00am 27.7 NNE 6 9 1013.2 - 0.0 - - - - - - -
25/01:30am 27.9 NNE 8 11 1013.1 - 0.0 - - - - - - -
25/01:00am 28.1 N 8 10 1013.5 - 0.0 - - - - - - -
25/12:30am 28.2 N 11 14 1013.4 - 0.0 - - - - - - -
25/12:00am 28.4 N 12 15 1013.4 - 0.0 - - - - - - -
 
Date/Time
CST
Temp

°C
Wind Pressure Rain
since 9am
mm
Weather Cloud Vis
km
Sea
Height
m
Swell
Dir
 
Speed
knots
Gust
knots
hPa Trend Height
m
Period
s
Dir
24/11:30pm 28.0 NW 10 15 1013.4 - 0.0 - - - - - - -
24/11:00pm 28.0 WNW 10 14 1013.5 - 0.0 - - - - - - -
24/10:30pm 28.2 WNW 11 14 1013.6 - 0.0 - - - - - - -
24/10:00pm 28.3 WNW 12 15 1013.3 - 0.0 - - - - - - -
24/09:30pm 28.4 WNW 13 17 1012.7 - 0.0 - - - - - - -
24/09:00pm 28.6 WNW 13 18 1012.2 - 0.0 - - - - - - -
24/08:30pm 28.6 WNW 15 19 1011.7 - 0.0 - - - - - - -
24/08:00pm 28.9 WNW 15 21 1011.2 - 0.0 - - - - - - -
24/07:30pm 29.1 NW 13 21 1010.7 - 0.0 - - - - - - -
24/07:00pm 30.5 NE 6 8 1010.3 - 0.0 - - - - - - -
24/06:30pm 30.5 NE 6 8 1010.2 - 0.0 - - - - - - -
24/06:00pm 30.6 NNE 6 9 1010.2 - 0.0 - - - - - - -
24/05:30pm 30.5 NNE 8 12 1009.9 - 0.0 - - - - - - -
24/05:00pm 30.6 NNE 11 15 1009.6 - 0.0 - - - - - - -
24/04:30pm 30.3 NNE 15 20 1009.4 - 0.0 - - - - - - -
24/04:00pm 30.2 NNE 13 19 1009.7 - 0.0 - - - - - - -
24/03:30pm 29.9 NNE 15 20 1010.0 - 0.0 - - - - - - -
24/03:00pm 30.1 NNE 13 18 1010.2 - 0.0 - - - - - - -
24/02:30pm 29.3 NNE 11 16 1010.5 - 0.0 - - - - - - -
24/02:00pm 29.6 N 13 15 1010.8 - 0.0 - - - - - - -
24/01:30pm 29.4 N 11 13 1011.3 - 0.0 - - - - - - -
24/01:00pm 29.4 N 10 13 1011.8 - 0.0 - - - - - - -
24/12:30pm 29.6 N 8 10 1012.3 - 0.0 - - - - - - -
24/12:00pm 29.2 NNE 6 8 1012.9 - 0.0 - - - - - - -
24/11:30am 29.4 NNE 5 8 1013.4 - 0.0 - - - - - - -
24/11:00am 29.5 NE 5 8 1013.9 - 0.0 - - - - - - -
24/10:30am 29.5 ENE 4 8 1014.5 - 0.0 - - - - - - -
24/10:00am 29.3 ENE 5 8 1014.7 - 0.0 - - - - - - -
24/09:30am 29.2 ENE 4 7 1014.7 - 0.0 - - - - - - -
24/09:00am 29.1 ENE 3 5 1014.6 - 0.0 - - - - - - -
24/08:30am 28.4 NE 3 5 1014.5 - 0.0 - - - - - - -
24/08:00am 27.9 N 4 5 1014.0 - 0.0 - - - - - - -
24/07:30am 27.8 NNE 2 5 1013.8 - 0.0 - - - - - - -
24/07:00am 25.1 NNE 1 3 1013.7 - 0.0 - - - - - - -
24/06:30am 25.1 ENE 1 5 1013.7 - 0.0 - - - - - - -
24/06:00am 26.4 NNE 3 5 1013.4 - 0.0 - - - - - - -
24/05:30am 27.3 NNE 3 5 1013.0 - 0.0 - - - - - - -
24/05:00am 27.4 NNE 5 7 1012.8 - 0.0 - - - - - - -
24/04:30am 27.6 NNE 6 8 1012.8 - 0.0 - - - - - - -
24/04:00am 27.7 NNE 6 9 1012.8 - 0.0 - - - - - - -
24/03:30am 27.8 NE 4 7 1012.6 - 0.0 - - - - - - -
24/03:00am 27.8 NNE 4 6 1012.7 - 0.0 - - - - - - -
24/02:30am 28.0 NNE 5 7 1013.0 - 0.0 - - - - - - -
24/02:00am 27.9 N 6 10 1013.3 - 0.0 - - - - - - -
24/01:30am 27.8 N 8 10 1013.4 - 0.0 - - - - - - -
24/01:00am 27.9 N 8 11 1013.6 - 0.0 - - - - - - -
24/12:30am 27.5 NW 8 10 1013.7 - 0.0 - - - - - - -
24/12:00am 27.5 WNW 6 8 1014.0 - 0.0 - - - - - - -
 
Date/Time
CST
Temp

°C
Wind Pressure Rain
since 9am
mm
Weather Cloud Vis
km
Sea
Height
m
Swell
Dir
 
Speed
knots
Gust
knots
hPa Trend Height
m
Period
s
Dir
23/11:30pm 27.7 NW 8 12 1014.1 - 0.0 - - - - - - -
23/11:00pm 28.0 NW 8 14 1014.1 - 0.0 - - - - - - -
23/10:30pm 28.0 NW 11 15 1013.8 - 0.0 - - - - - - -
23/10:00pm 28.3 NW 12 16 1013.3 - 0.0 - - - - - - -
23/09:30pm 28.3 W 5 14 1012.7 - 0.0 - - - - - - -
23/09:00pm 28.4 W 5 7 1012.0 - 0.0 - - - - - - -
23/08:30pm 26.6 NNE 1 5 1011.4 - 0.0 - - - - - - -
23/08:00pm 26.5 ESE 2 3 1011.1 - 0.0 - - - - - - -
23/07:30pm 27.7 SE 1 2 1010.9 - 0.0 - - - - - - -
23/07:00pm 30.5 NNE 4 5 1010.6 - 0.0 - - - - - - -
23/06:30pm 30.6 NNE 4 7 1010.5 - 0.0 - - - - - - -
23/06:00pm 30.8 NNE 8 10 1010.2 - 0.0 - - - - - - -
23/05:30pm 30.8 NNE 8 11 1009.9 - 0.0 - - - - - - -
23/05:00pm 30.7 NE 10 16 1009.5 - 0.0 - - - - - - -
23/04:30pm 30.6 NNE 13 17 1009.4 - 0.0 - - - - - - -
23/04:00pm 30.4 NNE 12 17 1009.9 - 0.0 - - - - - - -
23/03:30pm 30.1 N 10 13 1010.2 - 0.0 - - - - - - -
23/03:00pm 30.0 NNE 9 13 1010.3 - 0.0 - - - - - - -
23/02:30pm 29.6 N 11 14 1010.6 - 0.0 - - - - - - -
23/02:00pm 29.5 N 10 13 1011.2 - 0.0 - - - - - - -
23/01:30pm 29.8 N 9 10 1011.8 - 0.0 - - - - - - -
23/01:00pm 29.5 N 9 12 1012.3 - 0.0 - - - - - - -
23/12:30pm 29.4 N 8 11 1012.8 - 0.0 - - - - - - -
23/12:00pm 29.5 NNE 5 8 1013.3 - 0.0 - - - - - - -
23/11:30am 29.6 NE 6 9 1013.8 - 0.0 - - - - - - -
23/11:00am 29.1 NE 6 9 1013.9 - 0.0 - - - - - - -
23/10:30am 28.9 NE 6 9 1014.4 - 0.0 - - - - - - -
23/10:00am 29.4 ENE 6 10 1014.7 - 0.0 - - - - - - -
23/09:30am 29.1 ENE 5 9 1014.7 - 0.0 - - - - - - -
23/09:00am 28.3 NE 5 8 1014.8 - 20.6 - - - - - - -
23/08:30am 27.7 NNE 6 10 1014.7 - 20.6 - - - - - - -
23/08:00am 27.5 NE 6 8 1014.6 - 20.6 - - - - - - -
23/07:30am 27.7 NE 4 7 1014.3 - 20.6 - - - - - - -
23/07:00am 27.2 NE 5 8 1013.8 - 20.6 - - - - - - -
23/06:30am 27.1 NNE 7 11 1013.4 - 20.4 - - - - - - -
23/06:00am 27.1 NNE 6 9 1013.1 - 20.4 - - - - - - -
23/05:30am 27.1 N 6 8 1012.8 - 20.4 - - - - - - -
23/05:00am 27.1 NNE 7 10 1012.5 - 20.4 - - - - - - -
23/04:30am 27.3 NE 7 12 1012.6 - 20.4 - - - - - - -
23/04:00am 27.5 NE 7 10 1012.5 - 20.4 - - - - - - -
23/03:30am 27.6 NE 7 11 1012.6 - 20.4 - - - - - - -
23/03:00am 27.7 NNE 8 13 1012.5 - 20.4 - - - - - - -

Other Formats:

Comma delimited format used in spreadsheet applications
http://www.bom.gov.au/fwo/IDD60701/IDD60701.99510.axf

JavaScript Object Notation format (JSON) in row-major order
http://www.bom.gov.au/fwo/IDD60701/IDD60701.99510.json